Time;durP1;ratioP1;P1;durP2;ratioP2;P2;SDS_P1;SDS_P2;PMS_P1;PMS_P2;Temp;Humidity;BMP_temperature;BMP_pressure;BME280_temperature;BME280_humidity;BME280_pressure;Samples;Min_cycle;Max_cycle;Signal;HPM_P1;HPM_P2
2022/11/05 00:10:03;;;;;;;3.17;2.88;;;;;;;;;;10443090;28;20230;-70
2022/11/05 00:20:24;;;;;;;2.85;2.35;;;;;;;;;;10445552;28;20863;-70
2022/11/05 00:25:26;;;;;;;5.13;3.13;;;;;;;;;;10403331;28;20215;-70
2022/11/05 00:30:29;;;;;;;4.15;2.65;;;;;;;;;;10461326;28;20304;-69
2022/11/05 00:35:30;;;;;;;3.38;2.50;;;;;;;;;;10425041;28;20215;-69
2022/11/05 00:40:31;;;;;;;5.13;2.65;;;;;;;;;;10442710;28;20222;-70
2022/11/05 00:45:33;;;;;;;3.33;2.17;;;;;;;;;;10459981;28;20253;-70
2022/11/05 00:50:34;;;;;;;2.80;1.98;;;;;;;;;;10421250;28;20210;-69
2022/11/05 00:55:39;;;;;;;3.92;2.65;;;;;;;;;;10444460;28;20221;-69
2022/11/05 01:00:42;;;;;;;3.05;2.00;;;;;;;;;;10425690;28;20329;-69
2022/11/05 01:05:44;;;;;;;9.43;3.03;;;;;;;;;;10443822;28;20206;-69
2022/11/05 01:10:47;;;;;;;2.10;2.00;;;;;;;;;;10442237;28;20718;-69
2022/11/05 01:15:49;;;;;;;4.05;1.73;;;;;;;;;;10436553;28;20242;-69
2022/11/05 01:20:50;;;;;;;4.93;1.98;;;;;;;;;;10421804;28;20899;-69
2022/11/05 01:25:52;;;;;;;6.70;2.10;;;;;;;;;;10419155;28;20223;-69
2022/11/05 01:30:56;;;;;;;1.92;1.55;;;;;;;;;;10409878;28;20234;-69
2022/11/05 01:35:57;;;;;;;6.63;1.80;;;;;;;;;;10441972;28;20741;-69
2022/11/05 01:40:58;;;;;;;2.25;1.58;;;;;;;;;;10443540;28;20226;-69
2022/11/05 01:46:00;;;;;;;9.32;2.03;;;;;;;;;;10487390;28;20266;-69
2022/11/05 01:51:09;;;;;;;4.53;2.08;;;;;;;;;;10456625;28;20211;-70
2022/11/05 01:56:13;;;;;;;1.92;1.77;;;;;;;;;;10483395;28;20239;-70
2022/11/05 02:01:14;;;;;;;2.70;2.00;;;;;;;;;;10456355;28;20246;-69
2022/11/05 02:06:16;;;;;;;2.63;1.98;;;;;;;;;;10481173;28;20206;-70
2022/11/05 02:11:18;;;;;;;2.05;1.92;;;;;;;;;;10479734;28;20218;-69
2022/11/05 02:16:27;;;;;;;4.25;2.00;;;;;;;;;;10479471;28;20751;-69
2022/11/05 02:21:51;;;;;;;2.15;1.95;;;;;;;;;;10477377;28;20233;-70
2022/11/05 02:27:11;;;;;;;7.63;1.90;;;;;;;;;;10449313;28;20911;-70
2022/11/05 02:32:21;;;;;;;3.55;2.30;;;;;;;;;;10478415;28;20665;-68
2022/11/05 02:37:39;;;;;;;4.82;2.25;;;;;;;;;;10458124;28;20222;-69
2022/11/05 02:42:43;;;;;;;3.33;2.72;;;;;;;;;;10454708;28;20761;-69
2022/11/05 02:47:51;;;;;;;4.05;3.33;;;;;;;;;;10457898;28;21142;-69
2022/11/05 02:52:55;;;;;;;6.70;3.17;;;;;;;;;;10482377;28;20206;-68
2022/11/05 02:57:58;;;;;;;5.88;3.28;;;;;;;;;;10494210;28;20215;-69
2022/11/05 03:02:59;;;;;;;5.45;3.55;;;;;;;;;;10488105;28;20905;-69
2022/11/05 03:08:04;;;;;;;6.78;3.13;;;;;;;;;;10477960;28;20222;-69
2022/11/05 03:13:17;;;;;;;4.70;3.20;;;;;;;;;;10482729;28;20240;-69
2022/11/05 03:18:18;;;;;;;6.07;2.63;;;;;;;;;;10443382;28;20234;-69
2022/11/05 03:23:25;;;;;;;3.25;2.45;;;;;;;;;;10442200;28;20253;-69
2022/11/05 03:28:28;;;;;;;4.28;2.78;;;;;;;;;;10418074;28;20207;-69
2022/11/05 03:33:31;;;;;;;3.55;2.67;;;;;;;;;;10424133;28;20217;-69
2022/11/05 03:38:34;;;;;;;3.63;2.75;;;;;;;;;;10446200;28;20209;-69
2022/11/05 03:43:39;;;;;;;3.22;2.92;;;;;;;;;;10444061;28;20726;-69
2022/11/05 03:48:43;;;;;;;8.98;3.88;;;;;;;;;;10443347;28;20639;-69
2022/11/05 03:53:54;;;;;;;7.43;3.65;;;;;;;;;;10443813;28;20206;-69
2022/11/05 03:58:56;;;;;;;5.47;3.88;;;;;;;;;;10456595;28;20218;-69
2022/11/05 04:03:57;;;;;;;6.40;3.53;;;;;;;;;;10455585;28;20277;-69
2022/11/05 04:14:18;;;;;;;7.68;3.75;;;;;;;;;;10444158;28;20210;-69
2022/11/05 04:24:07;;;;;;;6.35;4.05;;;;;;;;;;10443711;28;20269;-69
2022/11/05 04:24:40;;;;;;;8.32;4.32;;;;;;;;;;10442966;28;20666;-69
2022/11/05 04:35:01;;;;;;;5.93;3.72;;;;;;;;;;10442523;28;20216;-70
2022/11/05 04:40:02;;;;;;;8.00;3.60;;;;;;;;;;10442208;28;20207;-69
2022/11/05 04:45:04;;;;;;;4.10;3.42;;;;;;;;;;10444875;28;20198;-69
2022/11/05 04:50:05;;;;;;;4.40;3.22;;;;;;;;;;10439205;28;20208;-69
2022/11/05 04:55:07;;;;;;;7.25;4.13;;;;;;;;;;10454203;28;20183;-68
2022/11/05 05:00:09;;;;;;;5.50;3.50;;;;;;;;;;10418799;28;20243;-69
2022/11/05 05:05:11;;;;;;;9.90;3.47;;;;;;;;;;10441377;28;20186;-70
2022/11/05 05:10:12;;;;;;;3.55;2.90;;;;;;;;;;10423696;28;20183;-70
2022/11/05 05:15:13;;;;;;;5.20;3.50;;;;;;;;;;10438142;28;20244;-69
2022/11/05 05:25:34;;;;;;;4.85;3.55;;;;;;;;;;10422344;28;20213;-69
2022/11/05 05:30:35;;;;;;;7.85;4.28;;;;;;;;;;10431823;28;20999;-68
2022/11/05 05:35:36;;;;;;;4.60;3.25;;;;;;;;;;10403906;28;20344;-69
2022/11/05 05:40:37;;;;;;;4.05;2.92;;;;;;;;;;10433951;28;20719;-68
2022/11/05 05:45:39;;;;;;;9.27;3.72;;;;;;;;;;10440776;28;20245;-69
2022/11/05 05:50:40;;;;;;;8.32;3.30;;;;;;;;;;10414507;28;20199;-68
2022/11/05 05:55:41;;;;;;;3.45;2.65;;;;;;;;;;10411954;28;20202;-68
2022/11/05 06:00:42;;;;;;;9.93;3.00;;;;;;;;;;10436768;28;20242;-69
2022/11/05 06:05:43;;;;;;;4.82;3.22;;;;;;;;;;10434560;28;20215;-69
2022/11/05 06:10:51;;;;;;;4.63;2.78;;;;;;;;;;10420986;28;20214;-69
2022/11/05 06:15:52;;;;;;;4.28;3.15;;;;;;;;;;10435038;28;20597;-70
2022/11/05 06:20:54;;;;;;;12.23;3.95;;;;;;;;;;10438099;28;20698;-68
2022/11/05 06:25:58;;;;;;;7.13;3.35;;;;;;;;;;10418887;28;20623;-69
2022/11/05 06:31:01;;;;;;;6.18;2.97;;;;;;;;;;10424531;28;20276;-69
2022/11/05 06:36:03;;;;;;;10.85;3.05;;;;;;;;;;10425541;28;20310;-68
2022/11/05 06:41:05;;;;;;;7.20;3.50;;;;;;;;;;10426651;28;20711;-69
2022/11/05 06:46:07;;;;;;;6.05;3.70;;;;;;;;;;10435492;28;20222;-69
2022/11/05 06:51:09;;;;;;;7.47;3.33;;;;;;;;;;10412028;28;20299;-68
2022/11/05 06:56:10;;;;;;;7.72;3.70;;;;;;;;;;10429122;28;20305;-69
2022/11/05 07:01:12;;;;;;;6.05;3.85;;;;;;;;;;10430775;28;20233;-69
2022/11/05 07:06:13;;;;;;;8.80;3.80;;;;;;;;;;10426071;28;20207;-69
2022/11/05 07:11:14;;;;;;;8.10;3.72;;;;;;;;;;10440493;28;20833;-69
2022/11/05 07:16:15;;;;;;;9.80;3.78;;;;;;;;;;10424273;28;20308;-69
2022/11/05 07:21:18;;;;;;;6.57;3.22;;;;;;;;;;10407538;28;20225;-69
2022/11/05 07:26:19;;;;;;;12.13;4.15;;;;;;;;;;10390355;28;20214;-69
2022/11/05 07:31:20;;;;;;;6.03;4.15;;;;;;;;;;10406113;28;20219;-70
2022/11/05 07:36:47;;;;;;;4.35;3.10;;;;;;;;;;10426614;28;20203;-69
2022/11/05 07:41:48;;;;;;;9.30;2.88;;;;;;;;;;10422893;28;20234;-70
2022/11/05 07:46:49;;;;;;;5.65;3.70;;;;;;;;;;10408628;28;20242;-70
2022/11/05 07:51:51;;;;;;;7.07;3.95;;;;;;;;;;10422857;28;20288;-69
2022/11/05 07:56:52;;;;;;;5.80;4.22;;;;;;;;;;10425446;28;20590;-70
2022/11/05 08:01:53;;;;;;;6.97;3.25;;;;;;;;;;10407316;28;20268;-70
2022/11/05 08:06:54;;;;;;;10.60;2.75;;;;;;;;;;10431149;28;20210;-70
2022/11/05 08:11:56;;;;;;;3.35;2.58;;;;;;;;;;10434619;28;20214;-70
2022/11/05 08:16:57;;;;;;;4.40;2.25;;;;;;;;;;10411249;28;20262;-70
2022/11/05 08:21:59;;;;;;;9.43;2.60;;;;;;;;;;10419442;28;20669;-69
2022/11/05 08:27:00;;;;;;;9.60;2.97;;;;;;;;;;10431192;28;20234;-70
2022/11/05 08:32:01;;;;;;;4.22;2.10;;;;;;;;;;10433488;28;20260;-68
2022/11/05 08:37:02;;;;;;;10.25;2.58;;;;;;;;;;10431978;28;20218;-70
2022/11/05 08:42:03;;;;;;;4.93;1.70;;;;;;;;;;10434313;28;20255;-69
2022/11/05 08:47:05;;;;;;;3.10;1.95;;;;;;;;;;10438155;28;20217;-71
2022/11/05 08:52:06;;;;;;;4.50;1.77;;;;;;;;;;10416641;28;20210;-71
2022/11/05 08:57:07;;;;;;;9.10;2.28;;;;;;;;;;10450404;28;20712;-69
2022/11/05 09:02:09;;;;;;;3.22;1.58;;;;;;;;;;10447287;28;20222;-70
2022/11/05 09:07:10;;;;;;;9.57;2.22;;;;;;;;;;10418911;28;20207;-70
2022/11/05 09:12:11;;;;;;;2.75;1.50;;;;;;;;;;10426033;28;20222;-70
2022/11/05 09:17:17;;;;;;;2.97;1.30;;;;;;;;;;10406805;28;20239;-70
2022/11/05 09:22:18;;;;;;;5.20;1.58;;;;;;;;;;10429754;28;20261;-69
2022/11/05 09:27:19;;;;;;;3.83;1.30;;;;;;;;;;10444226;28;20333;-69
2022/11/05 09:32:22;;;;;;;3.25;1.38;;;;;;;;;;10423480;28;20211;-70
2022/11/05 09:37:23;;;;;;;3.92;0.90;;;;;;;;;;10434694;28;20250;-70
2022/11/05 09:42:25;;;;;;;3.17;1.00;;;;;;;;;;10435986;28;20273;-69
2022/11/05 09:47:29;;;;;;;3.95;0.88;;;;;;;;;;10415086;28;20268;-69
2022/11/05 09:52:31;;;;;;;2.85;1.20;;;;;;;;;;10440345;28;20215;-70
2022/11/05 09:57:44;;;;;;;7.85;0.85;;;;;;;;;;10430140;28;20221;-70
2022/11/05 10:03:06;;;;;;;5.63;0.88;;;;;;;;;;10428955;28;20225;-69
2022/11/05 10:08:12;;;;;;;2.88;0.90;;;;;;;;;;10432243;28;20238;-69
2022/11/05 10:13:32;;;;;;;3.30;0.80;;;;;;;;;;10425203;28;20227;-68
2022/11/05 10:18:35;;;;;;;4.72;1.20;;;;;;;;;;10427707;28;20226;-69
2022/11/05 10:23:36;;;;;;;1.58;1.00;;;;;;;;;;10444425;28;20257;-68
2022/11/05 10:28:38;;;;;;;7.10;1.00;;;;;;;;;;10434459;28;20806;-69
2022/11/05 10:33:42;;;;;;;3.42;0.80;;;;;;;;;;10430495;28;20299;-71
2022/11/05 10:38:43;;;;;;;3.03;0.85;;;;;;;;;;10429293;28;20591;-70
2022/11/05 10:43:46;;;;;;;2.00;0.65;;;;;;;;;;10430660;28;20222;-68
2022/11/05 10:48:50;;;;;;;5.90;0.60;;;;;;;;;;10427576;28;20211;-69
2022/11/05 10:53:53;;;;;;;2.40;0.63;;;;;;;;;;10422066;28;20214;-72
2022/11/05 10:58:56;;;;;;;1.38;0.68;;;;;;;;;;10426280;28;20210;-71
2022/11/05 11:04:23;;;;;;;1.58;0.65;;;;;;;;;;10401423;28;20314;-69
2022/11/05 11:09:26;;;;;;;0.70;0.68;;;;;;;;;;10401289;28;20207;-70
2022/11/05 11:14:28;;;;;;;3.85;0.82;;;;;;;;;;10407050;28;20225;-70
2022/11/05 11:19:31;;;;;;;1.25;0.70;;;;;;;;;;10421456;28;20226;-71
2022/11/05 11:24:44;;;;;;;1.48;0.52;;;;;;;;;;10436814;28;20223;-71
2022/11/05 11:29:48;;;;;;;4.43;0.80;;;;;;;;;;10423592;28;20207;-71
2022/11/05 11:34:51;;;;;;;2.45;0.40;;;;;;;;;;10394644;28;20218;-71
2022/11/05 11:39:57;;;;;;;2.00;0.55;;;;;;;;;;10439455;28;20215;-71
2022/11/05 11:45:01;;;;;;;3.72;0.63;;;;;;;;;;10414809;28;20249;-72
2022/11/05 11:50:02;;;;;;;3.03;0.57;;;;;;;;;;10400218;28;20635;-71
2022/11/05 11:55:13;;;;;;;0.88;0.50;;;;;;;;;;10434278;28;20698;-72
2022/11/05 12:00:14;;;;;;;0.70;0.60;;;;;;;;;;10412102;28;20175;-71
2022/11/05 12:05:19;;;;;;;2.30;0.60;;;;;;;;;;10430331;28;20175;-72
2022/11/05 12:10:32;;;;;;;1.98;0.70;;;;;;;;;;10436774;28;20206;-72
2022/11/05 12:15:42;;;;;;;1.88;0.50;;;;;;;;;;10432824;28;20225;-72
2022/11/05 12:20:52;;;;;;;1.85;0.60;;;;;;;;;;10401513;28;20642;-71
2022/11/05 12:26:03;;;;;;;1.90;0.63;;;;;;;;;;10374156;28;20224;-71
2022/11/05 12:31:13;;;;;;;6.00;0.80;;;;;;;;;;10386157;28;20282;-70
2022/11/05 12:36:20;;;;;;;9.73;4.30;;;;;;;;;;10399009;28;20292;-69
2022/11/05 12:41:24;;;;;;;2.55;0.52;;;;;;;;;;10372785;28;20945;-70
2022/11/05 12:46:28;;;;;;;2.92;0.50;;;;;;;;;;10390873;28;20206;-71
2022/11/05 12:51:29;;;;;;;3.05;0.93;;;;;;;;;;10387968;28;20306;-70
2022/11/05 12:56:40;;;;;;;1.00;0.35;;;;;;;;;;10397226;28;20210;-70
2022/11/05 13:01:44;;;;;;;4.25;0.63;;;;;;;;;;10393889;28;20223;-70
2022/11/05 13:06:48;;;;;;;2.65;0.60;;;;;;;;;;10397040;28;20306;-71
2022/11/05 13:11:52;;;;;;;1.27;0.45;;;;;;;;;;10390821;28;20668;-70
2022/11/05 13:17:04;;;;;;;0.57;0.40;;;;;;;;;;10379889;28;20242;-70
2022/11/05 13:22:15;;;;;;;1.55;0.60;;;;;;;;;;10406347;28;20604;-70
2022/11/05 13:27:39;;;;;;;3.78;0.60;;;;;;;;;;10412770;28;20682;-71
2022/11/05 13:32:43;;;;;;;2.47;0.57;;;;;;;;;;10429346;28;21014;-71
2022/11/05 13:43:05;;;;;;;2.95;0.70;;;;;;;;;;10434397;28;20283;-71
2022/11/05 13:48:16;;;;;;;1.38;0.85;;;;;;;;;;10433062;28;20210;-72
2022/11/05 13:53:17;;;;;;;1.02;0.70;;;;;;;;;;10435072;28;20215;-71
2022/11/05 13:58:37;;;;;;;5.30;0.80;;;;;;;;;;10433182;28;20578;-71
2022/11/05 14:03:40;;;;;;;2.95;0.82;;;;;;;;;;10434104;28;20222;-72
2022/11/05 14:08:43;;;;;;;2.45;1.10;;;;;;;;;;10417855;28;20225;-71
2022/11/05 14:13:44;;;;;;;3.70;1.02;;;;;;;;;;10418585;28;20222;-71
2022/11/05 14:18:45;;;;;;;2.38;0.60;;;;;;;;;;10432972;28;20265;-71
2022/11/05 14:23:50;;;;;;;2.30;1.23;;;;;;;;;;10425881;28;20621;-71
2022/11/05 14:28:52;;;;;;;2.35;0.50;;;;;;;;;;10428099;28;20213;-70
2022/11/05 14:34:13;;;;;;;0.70;0.70;;;;;;;;;;10429614;28;20631;-70
2022/11/05 14:39:21;;;;;;;0.70;0.70;;;;;;;;;;10409548;28;20585;-68
2022/11/05 14:44:23;;;;;;;0.93;0.80;;;;;;;;;;10437522;28;20218;-70
2022/11/05 14:49:26;;;;;;;2.25;0.82;;;;;;;;;;10421097;28;20215;-71
2022/11/05 14:54:44;;;;;;;2.58;0.73;;;;;;;;;;10441247;28;20638;-71
2022/11/05 14:59:57;;;;;;;0.95;0.95;;;;;;;;;;10433506;28;20238;-70
2022/11/05 15:05:17;;;;;;;1.17;0.85;;;;;;;;;;10403185;28;20222;-72
2022/11/05 15:10:19;;;;;;;1.48;1.08;;;;;;;;;;10423172;28;20206;-71
2022/11/05 15:15:22;;;;;;;1.77;1.67;;;;;;;;;;10427761;28;20797;-71
2022/11/05 15:20:28;;;;;;;5.75;2.00;;;;;;;;;;10427221;28;20732;-72
2022/11/05 15:25:33;;;;;;;2.22;2.00;;;;;;;;;;10409028;28;20697;-72
2022/11/05 15:30:34;;;;;;;2.25;1.60;;;;;;;;;;10436988;28;20206;-73
2022/11/05 15:35:40;;;;;;;1.75;1.70;;;;;;;;;;10434987;28;21009;-71
2022/11/05 15:40:41;;;;;;;4.15;2.80;;;;;;;;;;10427964;28;20233;-72
2022/11/05 15:45:43;;;;;;;2.35;2.13;;;;;;;;;;10431510;28;20221;-72
2022/11/05 15:50:44;;;;;;;2.00;1.90;;;;;;;;;;10431810;28;20272;-71
2022/11/05 15:55:50;;;;;;;1.98;1.88;;;;;;;;;;10413370;28;20697;-72
2022/11/05 16:00:51;;;;;;;2.50;2.40;;;;;;;;;;10408043;28;20240;-72
2022/11/05 16:05:52;;;;;;;3.28;3.08;;;;;;;;;;10434994;28;20215;-73
2022/11/05 16:10:55;;;;;;;8.15;3.30;;;;;;;;;;10423467;28;20211;-73
2022/11/05 16:15:58;;;;;;;6.95;4.63;;;;;;;;;;10427475;28;20222;-72
2022/11/05 16:21:05;;;;;;;5.82;4.35;;;;;;;;;;10427427;28;20324;-73
2022/11/05 16:26:24;;;;;;;7.40;5.60;;;;;;;;;;10447535;28;20206;-73
2022/11/05 16:31:27;;;;;;;7.90;5.32;;;;;;;;;;10436911;28;20222;-71
2022/11/05 16:36:29;;;;;;;6.00;4.75;;;;;;;;;;10451510;28;20237;-72
2022/11/05 16:41:30;;;;;;;6.22;5.00;;;;;;;;;;10439381;28;20214;-73
2022/11/05 16:46:32;;;;;;;7.68;5.93;;;;;;;;;;10411997;28;20202;-74
2022/11/05 16:51:34;;;;;;;6.88;6.18;;;;;;;;;;10440243;28;20210;-70
2022/11/05 16:56:35;;;;;;;9.48;5.38;;;;;;;;;;10443231;28;20210;-67
2022/11/05 17:01:38;;;;;;;6.28;4.75;;;;;;;;;;10432888;28;20219;-72
2022/11/05 17:06:40;;;;;;;5.70;4.85;;;;;;;;;;10444623;28;20215;-72
2022/11/05 17:11:41;;;;;;;6.45;5.10;;;;;;;;;;10425073;28;20222;-70
2022/11/05 17:16:42;;;;;;;6.68;4.50;;;;;;;;;;10441236;28;20718;-72
2022/11/05 17:21:43;;;;;;;6.50;5.22;;;;;;;;;;10427171;28;20238;-75
2022/11/05 17:26:44;;;;;;;7.72;5.32;;;;;;;;;;10436822;28;20211;-70
2022/11/05 17:31:45;;;;;;;8.02;6.18;;;;;;;;;;10436963;28;20210;-74
2022/11/05 17:36:46;;;;;;;12.70;6.93;;;;;;;;;;10433967;28;20199;-72
2022/11/05 17:41:48;;;;;;;7.53;5.72;;;;;;;;;;10435639;28;20218;-71
2022/11/05 17:46:50;;;;;;;9.40;5.78;;;;;;;;;;10445335;28;20838;-72
2022/11/05 17:51:51;;;;;;;5.65;5.15;;;;;;;;;;10409403;28;20318;-72
2022/11/05 17:56:52;;;;;;;6.22;4.72;;;;;;;;;;10434171;28;20263;-72
2022/11/05 18:01:53;;;;;;;5.57;4.57;;;;;;;;;;10435311;28;20218;-72
2022/11/05 18:06:54;;;;;;;8.48;5.45;;;;;;;;;;10431575;28;20211;-72
2022/11/05 18:11:55;;;;;;;9.55;5.47;;;;;;;;;;10453479;28;20218;-72
2022/11/05 18:16:59;;;;;;;7.00;6.13;;;;;;;;;;10439696;28;20242;-72
2022/11/05 18:22:00;;;;;;;13.85;7.32;;;;;;;;;;10430704;28;20211;-72
2022/11/05 18:27:01;;;;;;;10.70;5.50;;;;;;;;;;10429589;28;20221;-72
2022/11/05 18:32:02;;;;;;;10.38;5.47;;;;;;;;;;10435178;28;20226;-75
2022/11/05 18:37:03;;;;;;;9.85;6.00;;;;;;;;;;10416398;28;20698;-73
2022/11/05 18:42:04;;;;;;;10.55;6.32;;;;;;;;;;10455088;28;22091;-74
2022/11/05 18:47:06;;;;;;;6.32;5.10;;;;;;;;;;10444150;28;20198;-75
2022/11/05 18:52:07;;;;;;;8.18;4.75;;;;;;;;;;10437490;28;20234;-81
2022/11/05 18:57:08;;;;;;;10.93;5.32;;;;;;;;;;10438338;28;20215;-77
2022/11/05 19:02:10;;;;;;;10.57;6.25;;;;;;;;;;10435059;28;20891;-73
2022/11/05 19:07:11;;;;;;;7.38;5.38;;;;;;;;;;10412744;28;20209;-73
2022/11/05 19:12:12;;;;;;;7.38;5.38;;;;;;;;;;10406429;28;20260;-72
2022/11/05 19:17:13;;;;;;;9.10;5.57;;;;;;;;;;10408544;28;20717;-73
2022/11/05 19:22:15;;;;;;;6.68;5.10;;;;;;;;;;10417227;28;20215;-75
2022/11/05 19:27:16;;;;;;;7.25;5.05;;;;;;;;;;10436072;28;20230;-75
2022/11/05 19:32:17;;;;;;;6.57;5.18;;;;;;;;;;10427316;28;20210;-70
2022/11/05 19:37:18;;;;;;;6.93;5.80;;;;;;;;;;10429057;28;20268;-70
2022/11/05 19:42:19;;;;;;;6.80;5.93;;;;;;;;;;10425359;28;20275;-69
2022/11/05 19:47:21;;;;;;;8.65;6.63;;;;;;;;;;10412488;28;20226;-72
2022/11/05 19:52:22;;;;;;;8.35;5.78;;;;;;;;;;10432209;28;20284;-77
2022/11/05 19:57:23;;;;;;;5.65;4.78;;;;;;;;;;10422365;28;20202;-76
2022/11/05 20:02:24;;;;;;;5.18;4.78;;;;;;;;;;10457529;28;20348;-77
2022/11/05 20:07:26;;;;;;;5.07;4.60;;;;;;;;;;10434804;28;20223;-75
2022/11/05 20:12:27;;;;;;;5.22;2.92;;;;;;;;;;10451334;28;20214;-75
2022/11/05 20:17:28;;;;;;;4.55;3.35;;;;;;;;;;10416766;28;20234;-74
2022/11/05 20:22:29;;;;;;;3.65;3.45;;;;;;;;;;10442313;28;20225;-71
2022/11/05 20:27:30;;;;;;;7.28;3.90;;;;;;;;;;10419331;28;20244;-72
2022/11/05 20:32:32;;;;;;;5.32;4.53;;;;;;;;;;10450645;28;20304;-70
2022/11/05 20:37:33;;;;;;;5.65;4.28;;;;;;;;;;10418113;28;20297;-76
2022/11/05 20:42:35;;;;;;;5.80;4.80;;;;;;;;;;10430110;28;20264;-75
2022/11/05 20:47:36;;;;;;;6.10;4.85;;;;;;;;;;10444133;28;20207;-75
2022/11/05 20:52:38;;;;;;;7.55;4.68;;;;;;;;;;10454474;28;20306;-76
2022/11/05 20:57:39;;;;;;;3.83;3.53;;;;;;;;;;10440180;28;20217;-75
2022/11/05 21:02:40;;;;;;;7.80;5.10;;;;;;;;;;10414815;28;20246;-76
2022/11/05 21:07:42;;;;;;;4.75;4.10;;;;;;;;;;10445530;28;20321;-75
2022/11/05 21:12:43;;;;;;;4.00;3.60;;;;;;;;;;10442710;28;20227;-75
2022/11/05 21:17:44;;;;;;;5.10;3.67;;;;;;;;;;10418557;28;24667;-75
2022/11/05 21:22:46;;;;;;;4.38;3.20;;;;;;;;;;10442136;28;20586;-75
2022/11/05 21:27:47;;;;;;;4.65;2.75;;;;;;;;;;10402859;28;20218;-76
2022/11/05 21:32:48;;;;;;;4.00;3.08;;;;;;;;;;10419212;28;20701;-75
2022/11/05 21:37:49;;;;;;;3.97;3.10;;;;;;;;;;10435149;28;20749;-75
2022/11/05 21:42:51;;;;;;;3.72;2.60;;;;;;;;;;10449856;28;20265;-75
2022/11/05 21:47:52;;;;;;;6.00;2.67;;;;;;;;;;10422272;28;20733;-75
2022/11/05 22:03:34;;;;;;;2.63;2.42;;;;;;;;;;10439057;28;20242;-75
2022/11/05 22:08:36;;;;;;;5.53;2.65;;;;;;;;;;10440924;28;20210;-75
2022/11/05 22:13:37;;;;;;;3.05;2.50;;;;;;;;;;10417165;28;21089;-75
2022/11/05 22:18:38;;;;;;;2.80;2.60;;;;;;;;;;10438099;28;20230;-75
2022/11/05 22:23:39;;;;;;;3.13;2.45;;;;;;;;;;10439147;28;20569;-76
2022/11/05 22:28:40;;;;;;;3.13;2.92;;;;;;;;;;10442073;28;20259;-75
2022/11/05 22:33:42;;;;;;;3.25;2.95;;;;;;;;;;10450228;28;20234;-75
2022/11/05 22:38:43;;;;;;;3.22;2.53;;;;;;;;;;10421625;28;20214;-75
2022/11/05 22:43:45;;;;;;;3.25;2.25;;;;;;;;;;10435983;28;20297;-75
2022/11/05 22:48:46;;;;;;;2.55;2.35;;;;;;;;;;10398865;28;20215;-75
2022/11/05 22:53:48;;;;;;;4.63;2.85;;;;;;;;;;10433940;28;20246;-75
2022/11/05 22:58:49;;;;;;;2.67;2.47;;;;;;;;;;10437935;28;20588;-75
2022/11/05 23:03:52;;;;;;;2.70;2.60;;;;;;;;;;10436837;28;20219;-75
2022/11/05 23:14:14;;;;;;;3.97;2.35;;;;;;;;;;10440478;28;20224;-75
2022/11/05 23:24:34;;;;;;;3.53;2.92;;;;;;;;;;10441331;28;20233;-75
2022/11/05 23:29:36;;;;;;;3.88;3.30;;;;;;;;;;10441592;28;20214;-75
2022/11/05 23:34:37;;;;;;;3.60;3.13;;;;;;;;;;10448363;28;20217;-75
2022/11/05 23:39:38;;;;;;;4.00;2.80;;;;;;;;;;10450037;28;20199;-75
2022/11/05 23:49:59;;;;;;;2.97;2.78;;;;;;;;;;10447458;28;20256;-75
2022/11/05 23:55:00;;;;;;;2.63;2.42;;;;;;;;;;10450576;28;20256;-75
